Map

Track Data

SID SEASON NUMBER BASIN SUBBASIN NAME ISO_TIME NATURE LAT LON WMO_WIND WMO_PRES WMO_AGENCY TRACK_TYPE DIST2LAND LANDFALL IFLAG USA_AGENCY USA_ATCF_ID USA_LAT USA_LON USA_RECORD USA_STATUS USA_WIND USA_PRES USA_SSHS USA_R34_NE USA_R34_SE USA_R34_SW USA_R34_NW USA_R50_NE USA_R50_SE USA_R50_SW USA_R50_NW USA_R64_NE USA_R64_SE USA_R64_SW USA_R64_NW USA_POCI USA_ROCI USA_RMW USA_EYE TOKYO_LAT TOKYO_LON TOKYO_GRADE TOKYO_WIND TOKYO_PRES TOKYO_R50_DIR TOKYO_R50_LONG TOKYO_R50_SHORT TOKYO_R30_DIR TOKYO_R30_LONG TOKYO_R30_SHORT TOKYO_LAND CMA_LAT CMA_LON CMA_CAT CMA_WIND CMA_PRES HKO_LAT HKO_LON HKO_CAT HKO_WIND HKO_PRES NEWDELHI_LAT NEWDELHI_LON NEWDELHI_GRADE NEWDELHI_WIND NEWDELHI_PRES NEWDELHI_CI NEWDELHI_DP NEWDELHI_POCI REUNION_LAT REUNION_LON REUNION_TYPE REUNION_WIND REUNION_PRES REUNION_TNUM REUNION_CI REUNION_RMW REUNION_R34_NE REUNION_R34_SE REUNION_R34_SW REUNION_R34_NW REUNION_R50_NE REUNION_R50_SE REUNION_R50_SW REUNION_R50_NW REUNION_R64_NE REUNION_R64_SE REUNION_R64_SW REUNION_R64_NW BOM_LAT BOM_LON BOM_TYPE BOM_WIND BOM_PRES BOM_TNUM BOM_CI BOM_RMW BOM_R34_NE BOM_R34_SE BOM_R34_SW BOM_R34_NW BOM_R50_NE BOM_R50_SE BOM_R50_SW BOM_R50_NW BOM_R64_NE BOM_R64_SE BOM_R64_SW BOM_R64_NW BOM_ROCI BOM_POCI BOM_EYE BOM_POS_METHOD BOM_PRES_METHOD NADI_LAT NADI_LON NADI_CAT NADI_WIND NADI_PRES WELLINGTON_LAT WELLINGTON_LON WELLINGTON_WIND WELLINGTON_PRES DS824_LAT DS824_LON DS824_STAGE DS824_WIND DS824_PRES TD9636_LAT TD9636_LON TD9636_STAGE TD9636_WIND TD9636_PRES TD9635_LAT TD9635_LON TD9635_WIND TD9635_PRES TD9635_ROCI NEUMANN_LAT NEUMANN_LON NEUMANN_CLASS NEUMANN_WIND NEUMANN_PRES MLC_LAT MLC_LON MLC_CLASS MLC_WIND MLC_PRES USA_GUST BOM_GUST BOM_GUST_PER REUNION_GUST REUNION_GUST_PER USA_SEAHGT USA_SEARAD_NE USA_SEARAD_SE USA_SEARAD_SW USA_SEARAD_NW STORM_SPEED STORM_DIR
1931365S17060 1932 65 SI MM NOT_NAMED 1931-12-31 06:00:00 NR -16.7000 59.9000 reunion main 445 415 _____O________ -1 -16.7000 59.9000 99 9.90000 6 218
1931365S17060 1932 65 SI MM NOT_NAMED 1931-12-31 09:00:00 NR -16.9353 59.7050 main 415 375 _____P________ -1 -16.9353 59.7050 99 6 219
1931365S17060 1932 65 SI MM NOT_NAMED 1931-12-31 12:00:00 NR -17.1696 59.5104 main 375 345 _____P________ -1 -17.1696 59.5104 99 6 219
1931365S17060 1932 65 SI MM NOT_NAMED 1931-12-31 15:00:00 NR -17.4018 59.3170 main 345 316 _____P________ -1 -17.4018 59.3170 99 6 218
1931365S17060 1932 65 SI MM NOT_NAMED 1931-12-31 18:00:00 NR -17.6311 59.1258 main 316 286 _____P________ -1 -17.6311 59.1258 99 6 219
1931365S17060 1932 65 SI MM NOT_NAMED 1931-12-31 21:00:00 NR -17.8564 58.9375 main 276 251 _____P________ -1 -17.8564 58.9375 99 6 218
1931365S17060 1932 65 SI MM NOT_NAMED 1932-01-01 00:00:00 NR -18.0770 58.7532 main 251 222 _____P________ -1 -18.0770 58.7532 99 6 218
1931365S17060 1932 65 SI MM NOT_NAMED 1932-01-01 03:00:00 NR -18.2918 58.5737 main 222 193 _____P________ -1 -18.2918 58.5737 99 5 218
1931365S17060 1932 65 SI MM NOT_NAMED 1932-01-01 06:00:00 NR -18.5000 58.4000 reunion main 193 165 _____O________ -1 -18.5000 58.4000 99 9.90000 5 218
1931365S17060 1932 65 SI MM NOT_NAMED 1932-01-01 09:00:00 NR -18.7016 58.2321 main 165 140 _____P________ -1 -18.7016 58.2321 99 5 218
1931365S17060 1932 65 SI MM NOT_NAMED 1932-01-01 12:00:00 NR -18.9004 58.0668 main 140 113 _____P________ -1 -18.9004 58.0668 99 5 218
1931365S17060 1932 65 SI MM NOT_NAMED 1932-01-01 15:00:00 NR -19.1011 57.9001 main 113 89 _____P________ -1 -19.1011 57.9001 99 5 218
1931365S17060 1932 65 SI MM NOT_NAMED 1932-01-01 18:00:00 NR -19.3086 57.7279 main 89 67 _____P________ -1 -19.3086 57.7279 99 5 218
1931365S17060 1932 65 SI MM NOT_NAMED 1932-01-01 21:00:00 NR -19.5275 57.5460 main 67 45 _____P________ -1 -19.5275 57.5460 99 6 218
1931365S17060 1932 65 SI MM NOT_NAMED 1932-01-02 00:00:00 NR -19.7626 57.3503 main 35 30 _____P________ -1 -19.7626 57.3503 99 6 218
1931365S17060 1932 65 SI MM NOT_NAMED 1932-01-02 03:00:00 NR -20.0185 57.1364 main 43 38 _____P________ -1 -20.0185 57.1364 99 7 218
1931365S17060 1932 65 SI MM NOT_NAMED 1932-01-02 06:00:00 NR -20.3000 56.9000 reunion main 47 43 _____O________ -1 -20.3000 56.9000 99 9.90000 8 219
1931365S17060 1932 65 SI MM NOT_NAMED 1932-01-02 09:00:00 NR -20.6547 56.5909 main 76 53 _____P________ -1 -20.6547 56.5909 99 10 219
1931365S17060 1932 65 SI MM NOT_NAMED 1932-01-02 12:00:00 NR -21.0390 56.2536 main 53 15 _____P________ -1 -21.0390 56.2536 99 10 219
1931365S17060 1932 65 SI MM NOT_NAMED 1932-01-02 15:00:00 NR -21.4408 55.8996 main 15 15 _____P________ -1 -21.4408 55.8996 99 11 219
1931365S17060 1932 65 SI MM NOT_NAMED 1932-01-02 18:00:00 NR -21.8482 55.5408 main 45 45 _____P________ -1 -21.8482 55.5408 99 10 219
1931365S17060 1932 65 SI MM NOT_NAMED 1932-01-02 21:00:00 NR -22.2495 55.1891 main 98 98 _____P________ -1 -22.2495 55.1891 99 10 219
1931365S17060 1932 65 SI MM NOT_NAMED 1932-01-03 00:00:00 NR -22.6330 54.8567 main 151 151 _____P________ -1 -22.6330 54.8567 99 9 218
1931365S17060 1932 65 SI MM NOT_NAMED 1932-01-03 03:00:00 NR -22.9870 54.5561 main 203 203 _____P________ -1 -22.9870 54.5561 99 8 218
1931365S17060 1932 65 SI MM NOT_NAMED 1932-01-03 06:00:00 NR -23.3000 54.3000 reunion main 246 246 _____O________ -1 -23.3000 54.3000 99 9.90000 7 216
1931365S17060 1932 65 SI MM NOT_NAMED 1932-01-03 09:00:00 NR -23.5637 54.0979 main 285 285 _____P________ -1 -23.5637 54.0979 99 6 214
1931365S17060 1932 65 SI MM NOT_NAMED 1932-01-03 12:00:00 NR -23.7817 53.9464 main 314 314 _____P________ -1 -23.7817 53.9464 99 5 211
1931365S17060 1932 65 SI MM NOT_NAMED 1932-01-03 15:00:00 NR -23.9607 53.8383 main 338 338 _____P________ -1 -23.9607 53.8383 99 4 207
1931365S17060 1932 65 SI MM NOT_NAMED 1932-01-03 18:00:00 NR -24.1074 53.7667 main 348 348 _____P________ -1 -24.1074 53.7667 99 3 202
1931365S17060 1932 65 SI MM NOT_NAMED 1932-01-03 21:00:00 NR -24.2281 53.7243 main 363 363 _____P________ -1 -24.2281 53.7243 99 2 196
1931365S17060 1932 65 SI MM NOT_NAMED 1932-01-04 00:00:00 NR -24.3295 53.7040 main 373 373 _____P________ -1 -24.3295 53.7040 99 2 0
1931365S17060 1932 65 SI MM NOT_NAMED 1932-01-04 03:00:00 NR -24.4180 53.6983 main 383 383 _____P________ -1 -24.4180 53.6983 99 2 189
1931365S17060 1932 65 SI MM NOT_NAMED 1932-01-04 06:00:00 NR -24.5000 53.7000 reunion main 393 _____O________ -1 -24.5000 53.7000 99 9.90000 2 0

About IBTrACS Database

This database is a web-friendly format of International Best Track Archive for Climate Stewardship (IBTrACS), a global best track data archive curated by NOAA dating back to 1842.

Updated: 2021-12-06